Time;durP1;ratioP1;P1;durP2;ratioP2;P2;SDS_P1;SDS_P2;PMS_P1;PMS_P2;Temp;Humidity;BMP_temperature;BMP_pressure;BME280_temperature;BME280_humidity;BME280_pressure;Samples;Min_cycle;Max_cycle;Signal;HPM_P1;HPM_P2
2024/01/06 00:00:07;;;;;;;2.80;1.10;;;;;;;8.86;75.01;99741.81;5037195;28;20279;-79
2024/01/06 00:02:34;;;;;;;4.10;1.00;;;;;;;8.87;75.22;99717.53;5035887;28;20206;-80
2024/01/06 00:05:00;;;;;;;1.87;1.17;;;;;;;8.86;75.46;99719.28;5036082;28;20256;-79
2024/01/06 00:07:26;;;;;;;2.03;0.90;;;;;;;8.75;74.47;99740.34;5036746;28;20198;-80
2024/01/06 00:09:53;;;;;;;3.33;1.00;;;;;;;8.78;74.05;99742.03;5036831;28;20272;-79
2024/01/06 00:12:21;;;;;;;2.47;0.90;;;;;;;8.75;74.37;99742.94;5037705;28;20206;-79
2024/01/06 00:14:48;;;;;;;1.33;0.90;;;;;;;8.73;73.51;99747.31;5035982;28;20259;-78
2024/01/06 00:17:15;;;;;;;0.80;0.80;;;;;;;8.79;74.95;99748.09;5036326;28;20221;-80
2024/01/06 00:19:41;;;;;;;1.97;1.00;;;;;;;8.84;75.82;99725.41;5037502;28;20226;-80
2024/01/06 00:22:08;;;;;;;2.77;1.13;;;;;;;8.90;76.50;99701.81;5037449;28;20202;-80
2024/01/06 00:24:35;;;;;;;2.73;1.20;;;;;;;8.97;76.92;99686.94;5035875;28;20718;-80
2024/01/06 00:27:01;;;;;;;1.03;0.90;;;;;;;8.97;77.27;99673.91;5035990;28;20252;-79
2024/01/06 00:29:29;;;;;;;1.00;0.90;;;;;;;8.99;77.18;99672.13;5036394;28;20294;-79
2024/01/06 00:31:55;;;;;;;3.27;1.00;;;;;;;8.90;77.20;99655.84;5035185;28;20495;-78
2024/01/06 00:34:21;;;;;;;0.73;0.70;;;;;;;8.93;77.42;99653.16;5036045;28;20291;-79
2024/01/06 00:36:48;;;;;;;2.17;0.93;;;;;;;8.93;77.67;99647.94;5037531;28;20232;-79
2024/01/06 00:39:14;;;;;;;3.20;1.57;;;;;;;8.94;78.29;99636.66;5036093;28;20226;-79
2024/01/06 00:41:40;;;;;;;2.03;1.13;;;;;;;8.87;79.55;99603.88;5035822;28;20267;-79
2024/01/06 00:44:07;;;;;;;3.27;1.20;;;;;;;8.79;78.29;99621.44;5035217;28;20229;-79
2024/01/06 00:46:34;;;;;;;2.03;1.07;;;;;;;8.78;79.60;99606.72;5036045;28;20206;-79
2024/01/06 00:49:01;;;;;;;2.27;1.17;;;;;;;8.65;78.96;99597.50;5034882;28;20238;-79
2024/01/06 00:51:28;;;;;;;1.43;1.07;;;;;;;8.66;80.60;99589.66;5090925;23;20229;-80
2024/01/06 00:53:54;;;;;;;2.00;1.00;;;;;;;8.68;80.96;99556.66;4986192;28;20285;-81
2024/01/06 00:56:21;;;;;;;1.73;1.10;;;;;;;8.69;80.66;99549.69;4994654;28;20219;-79
2024/01/06 00:58:48;;;;;;;5.63;1.30;;;;;;;8.67;81.36;99531.53;4987311;28;20207;-79
2024/01/06 01:01:14;;;;;;;2.50;1.30;;;;;;;8.64;82.22;99516.00;4996633;28;20203;-79
2024/01/06 01:03:42;;;;;;;2.33;1.10;;;;;;;8.64;82.60;99499.53;4996450;28;20199;-79
2024/01/06 01:06:09;;;;;;;1.47;0.97;;;;;;;8.55;83.71;99483.28;4995205;28;20715;-79
2024/01/06 01:08:35;;;;;;;2.60;1.23;;;;;;;8.53;83.73;99461.66;4995297;28;20210;-79
2024/01/06 01:11:01;;;;;;;2.47;1.27;;;;;;;8.51;84.32;99447.84;4998306;28;20636;-79
2024/01/06 01:13:28;;;;;;;3.00;1.20;;;;;;;8.47;84.78;99445.38;4997205;28;20235;-80
2024/01/06 01:15:54;;;;;;;3.50;1.20;;;;;;;8.48;84.10;99442.72;4983657;28;20211;-79
2024/01/06 01:18:20;;;;;;;2.17;1.07;;;;;;;8.44;84.76;99445.44;4985137;28;20204;-79
2024/01/06 01:20:48;;;;;;;2.13;1.20;;;;;;;8.38;85.33;99435.16;4995997;28;20211;-80
2024/01/06 01:23:14;;;;;;;1.20;1.10;;;;;;;8.39;85.65;99419.53;4997092;28;20247;-80
2024/01/06 01:25:41;;;;;;;2.33;1.40;;;;;;;8.42;85.63;99416.84;4996420;28;20286;-80
2024/01/06 01:28:07;;;;;;;1.83;1.00;;;;;;;8.41;86.13;99409.97;4997573;28;20242;-80
2024/01/06 01:30:33;;;;;;;1.90;1.00;;;;;;;8.44;85.97;99401.22;4998108;28;20689;-78
2024/01/06 01:32:59;;;;;;;1.97;1.10;;;;;;;8.37;87.01;99392.72;4993986;28;20239;-79
2024/01/06 01:35:26;;;;;;;3.67;0.80;;;;;;;8.41;86.81;99383.09;4997172;28;20266;-78
2024/01/06 01:37:53;;;;;;;1.97;1.07;;;;;;;8.42;86.70;99382.22;4997236;28;20200;-79
2024/01/06 01:40:20;;;;;;;1.10;1.00;;;;;;;8.43;87.05;99373.53;4998310;28;20203;-78
2024/01/06 01:42:46;;;;;;;4.20;1.23;;;;;;;8.39;87.29;99372.72;4997376;28;20274;-79
2024/01/06 01:45:12;;;;;;;2.87;1.30;;;;;;;8.41;87.38;99370.97;4991364;28;20275;-79
2024/01/06 01:47:40;;;;;;;1.67;1.03;;;;;;;8.40;87.61;99366.59;4977854;28;20279;-79
2024/01/06 01:50:08;;;;;;;1.70;0.70;;;;;;;8.37;87.91;99364.09;4997718;28;20214;-79
2024/01/06 01:52:36;;;;;;;1.47;0.80;;;;;;;8.35;87.16;99361.53;4996438;28;20231;-77
2024/01/06 01:55:05;;;;;;;1.10;1.00;;;;;;;8.35;87.75;99358.09;4996595;28;20278;-80
2024/01/06 01:57:31;;;;;;;2.27;0.93;;;;;;;8.29;86.79;99374.72;4994609;28;20212;-78
2024/01/06 01:59:57;;;;;;;2.23;1.00;;;;;;;8.33;87.39;99386.72;4997325;28;20262;-79
2024/01/06 02:02:24;;;;;;;3.10;1.03;;;;;;;8.34;87.45;99383.25;4996622;28;20223;-79
2024/01/06 02:04:50;;;;;;;3.03;1.57;;;;;;;8.30;87.65;99381.59;4995861;28;20736;-79
2024/01/06 02:07:17;;;;;;;6.30;1.30;;;;;;;8.25;88.11;99373.09;4995710;28;20698;-79
2024/01/06 02:09:43;;;;;;;2.60;1.17;;;;;;;8.26;88.75;99363.53;4995710;28;20274;-80
2024/01/06 02:12:11;;;;;;;1.63;0.90;;;;;;;8.29;88.46;99356.50;4996814;28;20618;-79
2024/01/06 02:14:37;;;;;;;1.57;1.10;;;;;;;8.26;87.79;99361.78;4995445;28;20219;-82
2024/01/06 02:17:04;;;;;;;3.23;1.30;;;;;;;8.23;88.12;99369.69;4975540;28;20210;-78
2024/01/06 02:19:30;;;;;;;6.53;1.00;;;;;;;8.25;87.76;99372.25;4992964;28;20586;-79
2024/01/06 02:21:58;;;;;;;1.23;1.03;;;;;;;8.18;83.66;99449.53;4999882;28;20253;-79
2024/01/06 02:24:24;;;;;;;1.77;1.13;;;;;;;8.21;84.70;99462.44;5000859;28;20199;-79
2024/01/06 02:26:51;;;;;;;2.37;1.13;;;;;;;8.25;84.43;99471.88;4998514;28;20207;-79
2024/01/06 02:29:17;;;;;;;1.50;1.40;;;;;;;8.16;83.18;99498.09;5002184;28;20203;-79
2024/01/06 02:31:43;;;;;;;1.60;1.33;;;;;;;8.27;83.32;99509.09;4997200;28;20223;-78
2024/01/06 02:34:10;;;;;;;1.90;1.33;;;;;;;8.40;82.12;99530.44;4996518;28;20371;-79
2024/01/06 02:36:36;;;;;;;1.23;1.13;;;;;;;8.27;81.81;99562.84;4994898;28;20264;-81
2024/01/06 02:39:04;;;;;;;2.20;1.40;;;;;;;8.18;82.51;99563.91;5002771;28;20206;-81
2024/01/06 02:41:30;;;;;;;1.87;1.30;;;;;;;8.28;83.23;99557.59;4994008;28;20266;-80
2024/01/06 02:43:57;;;;;;;2.80;1.20;;;;;;;8.35;82.88;99559.16;5005599;28;20227;-78
2024/01/06 02:46:23;;;;;;;1.40;1.30;;;;;;;8.38;83.42;99547.81;4997597;28;20184;-77
2024/01/06 02:48:50;;;;;;;2.57;1.20;;;;;;;8.38;83.67;99549.56;5002904;28;20207;-78
2024/01/06 02:51:15;;;;;;;1.23;1.13;;;;;;;8.34;84.06;99547.06;5014170;28;20208;-77
2024/01/06 02:53:41;;;;;;;1.87;1.43;;;;;;;8.37;83.76;99543.53;5013739;28;20227;-78
2024/01/06 02:56:11;;;;;;;2.63;1.17;;;;;;;8.43;84.24;99543.41;5016195;28;20204;-77
2024/01/06 02:58:38;;;;;;;3.47;1.23;;;;;;;8.35;84.64;99532.31;5020044;28;20258;-78
2024/01/06 03:01:04;;;;;;;2.17;1.30;;;;;;;8.36;84.01;99526.19;5019386;28;20218;-78
2024/01/06 03:03:30;;;;;;;1.70;1.33;;;;;;;8.37;83.09;99538.31;5009758;28;20222;-80
2024/01/06 03:05:57;;;;;;;2.47;1.23;;;;;;;8.41;83.71;99536.50;5001044;28;20277;-80
2024/01/06 03:08:23;;;;;;;2.80;1.40;;;;;;;8.32;84.44;99525.44;5000875;28;20235;-80
2024/01/06 03:10:50;;;;;;;2.63;1.63;;;;;;;8.37;84.05;99522.72;4999618;28;20215;-79
2024/01/06 03:13:17;;;;;;;2.20;1.30;;;;;;;8.43;83.58;99539.97;5007626;28;20231;-80
2024/01/06 03:15:44;;;;;;;2.00;1.57;;;;;;;8.47;83.55;99546.78;4990516;28;20203;-80
2024/01/06 03:18:10;;;;;;;2.80;1.70;;;;;;;8.46;84.21;99535.53;4983740;28;20254;-80
2024/01/06 03:20:36;;;;;;;1.53;1.43;;;;;;;8.49;84.35;99539.81;5010259;28;20262;-81
2024/01/06 03:23:03;;;;;;;1.93;1.50;;;;;;;8.46;85.28;99530.34;4999831;28;20277;-79
2024/01/06 03:25:29;;;;;;;4.03;1.70;;;;;;;8.45;85.29;99515.63;5001402;28;20203;-80
2024/01/06 03:27:55;;;;;;;2.63;1.40;;;;;;;8.50;85.94;99512.88;5001182;28;20206;-81
2024/01/06 03:30:23;;;;;;;1.80;1.10;;;;;;;8.48;85.41;99512.94;5001669;28;20211;-79
2024/01/06 03:32:49;;;;;;;1.83;1.20;;;;;;;8.32;85.95;99502.03;5000650;28;20235;-81
2024/01/06 03:35:16;;;;;;;5.07;1.20;;;;;;;8.36;86.79;99484.59;5000747;28;20278;-81
2024/01/06 03:37:42;;;;;;;3.20;1.20;;;;;;;8.38;86.39;99484.56;5001215;28;20203;-81
2024/01/06 03:40:09;;;;;;;1.80;1.10;;;;;;;8.35;86.74;99481.16;5008405;28;20282;-80
2024/01/06 03:42:36;;;;;;;5.37;1.30;;;;;;;8.35;86.28;99472.50;5000629;28;20606;-78
2024/01/06 03:45:03;;;;;;;1.40;1.30;;;;;;;8.34;86.91;99473.38;4995999;28;20204;-80
2024/01/06 03:47:31;;;;;;;1.20;1.07;;;;;;;8.32;87.23;99470.84;4988182;28;20605;-80
2024/01/06 03:49:57;;;;;;;2.67;1.10;;;;;;;8.29;87.06;99468.31;4999404;28;20254;-81
2024/01/06 03:52:23;;;;;;;5.10;1.03;;;;;;;8.32;86.96;99463.03;5000697;28;20258;-80
2024/01/06 03:54:50;;;;;;;1.60;0.83;;;;;;;8.37;87.23;99467.28;4999307;28;20227;-81
2024/01/06 03:57:16;;;;;;;3.57;1.13;;;;;;;8.30;86.99;99474.34;4999815;28;20208;-81
2024/01/06 03:59:43;;;;;;;2.03;1.10;;;;;;;8.18;86.92;99477.25;5010517;28;20273;-81
2024/01/06 04:02:09;;;;;;;2.20;1.03;;;;;;;8.24;87.28;99475.34;5007459;28;20286;-79
2024/01/06 04:04:37;;;;;;;1.23;1.10;;;;;;;8.23;86.88;99478.03;5001214;28;20334;-80
2024/01/06 04:07:04;;;;;;;1.83;1.20;;;;;;;8.13;86.96;99483.44;4999325;28;20655;-81
2024/01/06 04:09:31;;;;;;;1.33;0.97;;;;;;;8.18;86.84;99477.25;5005413;28;20215;-81
2024/01/06 04:11:57;;;;;;;3.20;1.10;;;;;;;8.16;87.20;99492.91;4998700;28;20289;-79
2024/01/06 04:14:23;;;;;;;3.43;1.13;;;;;;;8.18;87.38;99491.09;5006446;28;20224;-81
2024/01/06 04:16:51;;;;;;;1.73;1.30;;;;;;;8.16;87.38;99491.13;4990949;28;20246;-80
2024/01/06 04:19:17;;;;;;;1.97;1.17;;;;;;;8.18;87.35;99491.09;4992077;28;20294;-81
2024/01/06 04:21:45;;;;;;;1.70;1.10;;;;;;;8.18;87.03;99495.47;4997007;28;20274;-79
2024/01/06 04:24:11;;;;;;;2.73;1.23;;;;;;;8.25;87.52;99491.84;4996382;28;20204;-80
2024/01/06 04:26:37;;;;;;;2.43;1.17;;;;;;;8.20;86.91;99509.28;5004885;28;20203;-79
2024/01/06 04:29:04;;;;;;;2.17;0.93;;;;;;;8.22;86.88;99507.50;4997694;28;20251;-81
2024/01/06 04:31:30;;;;;;;1.97;1.20;;;;;;;8.23;87.12;99514.41;4996695;28;20215;-80
2024/01/06 04:33:56;;;;;;;1.17;1.00;;;;;;;8.24;87.06;99529.09;5006016;28;20710;-81
2024/01/06 04:36:23;;;;;;;2.50;1.20;;;;;;;8.15;86.25;99545.78;4997847;28;20200;-80
2024/01/06 04:38:50;;;;;;;1.07;0.90;;;;;;;8.18;86.12;99550.06;4997524;28;20258;-81
2024/01/06 04:41:17;;;;;;;2.20;1.23;;;;;;;8.24;86.00;99552.50;4996459;28;20272;-81
2024/01/06 04:43:43;;;;;;;1.60;1.10;;;;;;;8.20;85.69;99569.91;4997303;28;20253;-81
2024/01/06 04:46:09;;;;;;;1.50;1.20;;;;;;;8.19;85.07;99577.78;4996539;28;20204;-81
2024/01/06 04:48:36;;;;;;;1.83;1.50;;;;;;;8.22;84.74;99585.47;4980714;28;20258;-78
2024/01/06 04:51:03;;;;;;;1.40;1.30;;;;;;;8.24;84.92;99596.69;4995230;28;20213;-80
2024/01/06 04:53:29;;;;;;;2.63;2.00;;;;;;;8.22;84.13;99608.88;4995558;28;20265;-81
2024/01/06 04:55:57;;;;;;;2.43;1.70;;;;;;;8.26;83.75;99618.31;4997111;28;20227;-81
2024/01/06 04:58:23;;;;;;;3.53;1.60;;;;;;;8.30;83.48;99623.41;4996726;28;20205;-80
2024/01/06 05:00:51;;;;;;;2.13;1.50;;;;;;;8.32;83.97;99624.25;4979812;28;20254;-79
2024/01/06 05:03:17;;;;;;;1.70;1.17;;;;;;;8.33;83.39;99633.75;4981205;28;20231;-80
2024/01/06 05:05:44;;;;;;;1.63;1.20;;;;;;;8.29;84.85;99624.31;4995797;28;20214;-80
2024/01/06 05:08:10;;;;;;;1.50;1.40;;;;;;;8.23;84.75;99624.44;4996552;28;20231;-80
2024/01/06 05:10:36;;;;;;;1.60;1.30;;;;;;;8.23;84.89;99623.59;4995898;28;20675;-79
2024/01/06 05:13:04;;;;;;;2.30;2.10;;;;;;;8.25;84.54;99625.28;4985674;28;20236;-81
2024/01/06 05:15:31;;;;;;;4.00;3.70;;;;;;;8.24;84.91;99623.53;4991357;28;20639;-80
2024/01/06 05:17:57;;;;;;;4.90;4.50;;;;;;;8.24;84.94;99636.53;4996216;28;20693;-78
2024/01/06 05:20:23;;;;;;;6.03;5.47;;;;;;;8.17;84.78;99635.00;4997489;28;20208;-81
2024/01/06 05:22:50;;;;;;;12.47;5.63;;;;;;;8.15;85.35;99626.38;4995628;28;20227;-81
2024/01/06 05:25:16;;;;;;;6.70;5.90;;;;;;;8.15;85.09;99618.56;4989754;28;20236;-79
2024/01/06 05:27:43;;;;;;;6.27;5.67;;;;;;;8.14;84.83;99620.28;4994769;28;20203;-80
2024/01/06 05:30:11;;;;;;;6.10;5.10;;;;;;;8.14;84.78;99616.84;4988376;28;20272;-80
2024/01/06 05:32:37;;;;;;;6.70;6.00;;;;;;;8.11;85.52;99627.34;4996032;28;20286;-81
2024/01/06 05:35:04;;;;;;;5.20;4.70;;;;;;;8.06;85.81;99621.38;4995936;28;20227;-81
2024/01/06 05:37:32;;;;;;;4.80;3.87;;;;;;;8.05;85.47;99610.13;4997041;28;20290;-79
2024/01/06 05:40:01;;;;;;;6.40;3.60;;;;;;;8.00;85.68;99603.31;4997441;28;20206;-81
2024/01/06 05:42:28;;;;;;;4.03;3.03;;;;;;;8.03;85.24;99601.50;4997104;28;20227;-79
2024/01/06 05:44:54;;;;;;;3.03;2.37;;;;;;;8.03;85.42;99608.44;4997384;28;20234;-79
2024/01/06 05:47:22;;;;;;;2.90;2.37;;;;;;;8.00;86.01;99608.50;5001768;28;20204;-80
2024/01/06 05:49:48;;;;;;;2.57;2.17;;;;;;;7.98;86.17;99605.94;4995733;28;20286;-80
2024/01/06 05:52:15;;;;;;;3.43;1.70;;;;;;;7.99;86.53;99604.19;4991752;28;20227;-80
2024/01/06 05:54:42;;;;;;;2.57;2.33;;;;;;;8.01;86.04;99605.88;4982882;28;20224;-80
2024/01/06 05:57:08;;;;;;;7.43;6.73;;;;;;;8.02;85.69;99615.38;5002868;28;20295;-79
2024/01/06 05:59:36;;;;;;;8.57;7.77;;;;;;;8.03;85.26;99631.84;4996165;28;20211;-79
2024/01/06 06:02:02;;;;;;;7.00;6.30;;;;;;;7.97;85.57;99627.63;4995445;28;20913;-81
2024/01/06 06:04:30;;;;;;;8.67;7.73;;;;;;;7.90;86.25;99636.44;4995193;28;20254;-79
2024/01/06 06:06:56;;;;;;;9.60;8.80;;;;;;;7.91;86.33;99615.63;4994516;28;20581;-81
2024/01/06 06:09:22;;;;;;;10.07;9.10;;;;;;;7.90;86.39;99623.44;4994815;28;20206;-80
2024/01/06 06:11:49;;;;;;;10.30;9.40;;;;;;;7.89;87.10;99630.38;4994831;28;20231;-79
2024/01/06 06:14:15;;;;;;;10.80;9.63;;;;;;;7.86;87.07;99625.25;4995054;28;20205;-80
2024/01/06 06:16:41;;;;;;;9.73;8.87;;;;;;;7.88;86.64;99622.63;4995014;28;20226;-78
2024/01/06 06:19:08;;;;;;;9.90;8.90;;;;;;;7.81;87.11;99624.50;4995882;28;20236;-81
2024/01/06 06:21:36;;;;;;;9.70;8.70;;;;;;;7.81;86.77;99629.69;4994912;28;20227;-81
2024/01/06 06:24:02;;;;;;;10.33;9.33;;;;;;;7.86;86.60;99635.63;4986411;28;20748;-81
2024/01/06 06:26:29;;;;;;;12.40;11.30;;;;;;;7.85;85.92;99646.03;4989787;28;20637;-77
2024/01/06 06:28:55;;;;;;;12.47;11.33;;;;;;;7.83;85.56;99671.22;4996552;28;20203;-81
2024/01/06 06:31:22;;;;;;;13.87;12.57;;;;;;;7.70;85.72;99686.19;4996163;28;20266;-80
2024/01/06 06:33:48;;;;;;;13.93;12.63;;;;;;;7.60;87.01;99680.31;4994149;28;20671;-80
2024/01/06 06:36:14;;;;;;;13.87;12.53;;;;;;;7.67;86.35;99675.84;4995620;28;20231;-80
2024/01/06 06:38:42;;;;;;;14.37;13.17;;;;;;;7.61;86.86;99675.97;5001606;28;20206;-80
2024/01/06 06:41:08;;;;;;;18.80;12.83;;;;;;;7.58;87.05;99663.91;4995342;28;20644;-80
2024/01/06 06:43:35;;;;;;;14.27;12.87;;;;;;;7.63;87.24;99663.81;4995397;28;20284;-80
2024/01/06 06:46:02;;;;;;;14.63;13.33;;;;;;;7.59;87.39;99673.44;4995049;28;20260;-80
2024/01/06 06:48:28;;;;;;;13.57;12.17;;;;;;;7.62;87.08;99668.16;4994551;28;20207;-81
2024/01/06 06:50:55;;;;;;;14.27;13.03;;;;;;;7.66;87.00;99676.75;4995202;28;20210;-80
2024/01/06 06:53:21;;;;;;;14.40;13.00;;;;;;;7.62;86.83;99682.91;4982896;28;20300;-78
2024/01/06 06:55:49;;;;;;;14.17;12.83;;;;;;;7.60;86.25;99690.72;4983283;28;20288;-78
2024/01/06 06:58:15;;;;;;;14.37;13.07;;;;;;;7.60;85.86;99697.66;4995091;28;20199;-80
2024/01/06 07:00:42;;;;;;;13.47;12.23;;;;;;;7.58;86.15;99702.03;4994061;28;20261;-80
2024/01/06 07:03:09;;;;;;;15.77;14.17;;;;;;;7.54;86.23;99714.19;4992709;28;20222;-80
2024/01/06 07:05:35;;;;;;;16.13;12.73;;;;;;;7.46;86.86;99708.28;4995442;28;20195;-81
2024/01/06 07:08:01;;;;;;;14.63;13.23;;;;;;;7.46;86.91;99703.09;4994337;28;20273;-81
2024/01/06 07:10:28;;;;;;;17.10;14.57;;;;;;;7.43;87.21;99695.34;4999098;28;20210;-81
2024/01/06 07:12:56;;;;;;;16.23;14.73;;;;;;;7.43;87.39;99691.00;4997291;28;20227;-81
2024/01/06 07:15:23;;;;;;;15.23;13.80;;;;;;;7.45;87.19;99691.88;4995374;28;20260;-79
2024/01/06 07:17:49;;;;;;;16.17;14.47;;;;;;;7.46;87.34;99687.50;4994272;28;20211;-81
2024/01/06 07:20:15;;;;;;;15.87;14.17;;;;;;;7.47;87.44;99694.41;4994046;28;20207;-81
2024/01/06 07:22:42;;;;;;;15.80;14.40;;;;;;;7.43;87.90;99691.00;4993455;28;20722;-80
2024/01/06 07:25:08;;;;;;;14.97;13.57;;;;;;;7.35;87.73;99692.88;4986714;28;20266;-81
2024/01/06 07:27:34;;;;;;;15.57;13.90;;;;;;;7.39;87.70;99702.34;4994485;28;20234;-81
2024/01/06 07:30:02;;;;;;;16.03;14.43;;;;;;;7.42;87.46;99710.09;5002291;28;20207;-81
2024/01/06 07:32:29;;;;;;;18.53;16.30;;;;;;;7.40;86.90;99726.56;4992862;28;20226;-81
2024/01/06 07:34:55;;;;;;;16.53;14.90;;;;;;;7.37;86.65;99732.66;4993300;28;20231;-81
2024/01/06 07:37:21;;;;;;;15.27;13.67;;;;;;;7.36;86.65;99738.75;4994009;28;20698;-81
2024/01/06 07:39:48;;;;;;;15.20;13.70;;;;;;;7.35;86.23;99752.59;4995221;28;20262;-81
2024/01/06 07:42:14;;;;;;;16.20;14.40;;;;;;;7.31;86.95;99749.22;4995744;28;20231;-82
2024/01/06 07:44:40;;;;;;;15.57;13.97;;;;;;;7.35;86.56;99744.81;4997624;28;20212;-81
2024/01/06 07:47:08;;;;;;;17.73;14.97;;;;;;;7.34;86.99;99753.50;4996726;28;20667;-82
2024/01/06 07:49:34;;;;;;;15.53;13.93;;;;;;;7.35;86.27;99760.38;4998104;28;20262;-82
2024/01/06 07:52:01;;;;;;;15.70;14.10;;;;;;;7.34;86.75;99762.13;5004015;28;20241;-80
2024/01/06 07:54:27;;;;;;;19.03;15.13;;;;;;;7.33;86.26;99770.81;4976992;28;20677;-79
2024/01/06 07:56:53;;;;;;;18.63;15.83;;;;;;;7.34;86.14;99769.06;4993045;28;20227;-80
2024/01/06 07:59:20;;;;;;;18.30;15.97;;;;;;;7.33;86.15;99776.00;4998899;28;20258;-80
2024/01/06 08:01:46;;;;;;;16.20;14.47;;;;;;;7.29;86.41;99773.47;4996092;28;20226;-80
2024/01/06 08:04:13;;;;;;;18.80;17.00;;;;;;;7.25;86.86;99779.59;4997141;28;20216;-80
2024/01/06 08:06:40;;;;;;;22.07;18.23;;;;;;;7.23;87.02;99778.75;4995821;28;20200;-80
2024/01/06 08:09:08;;;;;;;17.33;15.63;;;;;;;7.21;87.08;99772.75;4996923;28;20211;-80
2024/01/06 08:11:34;;;;;;;16.13;14.43;;;;;;;7.23;87.01;99777.03;4997153;28;20211;-81
2024/01/06 08:14:01;;;;;;;15.70;14.10;;;;;;;7.23;86.84;99789.16;4997900;28;20294;-81
2024/01/06 08:16:27;;;;;;;16.27;14.63;;;;;;;7.15;86.40;99804.84;4999518;28;20231;-80
2024/01/06 08:18:54;;;;;;;15.87;14.17;;;;;;;7.13;86.56;99811.78;4997169;28;20212;-80
2024/01/06 08:21:21;;;;;;;16.20;14.50;;;;;;;7.12;86.35;99816.13;4996599;28;20203;-80
2024/01/06 08:23:48;;;;;;;15.27;13.77;;;;;;;7.14;86.06;99821.31;4980935;28;20209;-80
2024/01/06 08:26:14;;;;;;;17.13;14.53;;;;;;;7.13;86.57;99832.56;4987511;28;20255;-81
2024/01/06 08:28:40;;;;;;;16.07;14.43;;;;;;;7.12;86.66;99830.84;4998032;28;20202;-79
2024/01/06 08:31:07;;;;;;;14.33;12.97;;;;;;;7.15;86.44;99843.78;4997791;28;20207;-80
2024/01/06 08:33:33;;;;;;;15.90;14.37;;;;;;;7.12;86.08;99846.44;4997268;28;20220;-81
2024/01/06 08:35:59;;;;;;;15.10;13.63;;;;;;;7.14;86.63;99852.44;4998497;28;20225;-80
2024/01/06 08:38:27;;;;;;;15.10;13.63;;;;;;;7.11;85.94;99855.06;4997028;28;20205;-81
2024/01/06 08:40:53;;;;;;;17.63;14.80;;;;;;;7.12;86.44;99868.03;5008115;28;20192;-80
2024/01/06 08:43:20;;;;;;;16.43;14.83;;;;;;;7.09;85.84;99862.88;5020946;28;20235;-80
2024/01/06 08:45:46;;;;;;;16.20;14.60;;;;;;;7.06;86.34;99868.13;4997234;28;20568;-80
2024/01/06 08:48:13;;;;;;;17.43;15.60;;;;;;;7.05;86.56;99861.22;4997089;28;20211;-80
2024/01/06 08:50:39;;;;;;;16.83;15.13;;;;;;;7.08;86.03;99868.97;4997284;28;20237;-80
2024/01/06 08:53:06;;;;;;;23.07;16.27;;;;;;;7.07;86.54;99872.41;4995578;28;20644;-80
2024/01/06 08:55:34;;;;;;;16.67;14.87;;;;;;;7.08;85.94;99886.28;4987616;28;20228;-80
2024/01/06 08:58:00;;;;;;;19.37;14.53;;;;;;;7.02;86.22;99886.38;4999923;28;20206;-80
2024/01/06 09:00:26;;;;;;;15.43;13.73;;;;;;;7.03;86.59;99885.47;4989079;28;20253;-80
2024/01/06 09:02:53;;;;;;;16.50;13.63;;;;;;;6.99;86.40;99889.84;4996304;28;20240;-80
2024/01/06 09:05:19;;;;;;;14.83;13.43;;;;;;;7.01;85.93;99889.81;4997028;28;20595;-80
2024/01/06 09:07:49;;;;;;;15.67;14.17;;;;;;;6.98;87.12;99888.13;4996642;28;20668;-80
2024/01/06 09:10:16;;;;;;;14.93;13.53;;;;;;;6.95;86.86;99885.56;5006001;28;20202;-80
2024/01/06 09:12:44;;;;;;;16.37;14.67;;;;;;;6.97;87.37;99886.41;4996215;28;20225;-80
2024/01/06 09:15:10;;;;;;;15.77;14.27;;;;;;;7.02;87.42;99886.38;4996293;28;20206;-80
2024/01/06 09:17:36;;;;;;;15.40;13.90;;;;;;;6.98;87.58;99888.13;4996846;28;20201;-80
2024/01/06 09:20:03;;;;;;;16.87;15.27;;;;;;;6.96;87.16;99889.91;4996404;28;20254;-80
2024/01/06 09:22:29;;;;;;;18.90;16.53;;;;;;;6.94;87.19;99897.69;4984338;28;20220;-80
2024/01/06 09:24:56;;;;;;;18.47;16.00;;;;;;;6.96;87.36;99895.94;4981249;28;20266;-80
2024/01/06 09:27:22;;;;;;;17.93;15.43;;;;;;;6.95;87.17;99901.13;4996653;28;20230;-80
2024/01/06 09:29:50;;;;;;;17.17;15.30;;;;;;;6.96;87.56;99900.28;4998181;28;20208;-81
2024/01/06 09:32:17;;;;;;;22.23;16.17;;;;;;;6.99;87.57;99905.41;4997535;28;20228;-80
2024/01/06 09:34:43;;;;;;;19.30;15.47;;;;;;;6.92;87.75;99902.03;4997440;28;20208;-80
2024/01/06 09:37:09;;;;;;;17.60;15.80;;;;;;;6.88;87.98;99896.91;4996857;28;20285;-80
2024/01/06 09:39:36;;;;;;;17.57;14.97;;;;;;;6.92;87.92;99896.84;4997609;28;20276;-80
2024/01/06 09:42:02;;;;;;;20.97;16.73;;;;;;;6.94;87.90;99899.44;4997218;28;20231;-80
2024/01/06 09:44:29;;;;;;;18.20;15.43;;;;;;;6.97;87.11;99905.41;5004725;28;20420;-80
2024/01/06 09:47:00;;;;;;;18.77;16.13;;;;;;;6.96;87.44;99910.66;4996718;28;20204;-80
2024/01/06 09:49:29;;;;;;;19.93;17.40;;;;;;;6.97;87.95;99897.63;4994062;28;20227;-79
2024/01/06 09:51:59;;;;;;;24.10;18.83;;;;;;;6.98;87.72;99903.69;4992115;28;20236;-80
2024/01/06 09:54:26;;;;;;;20.87;16.97;;;;;;;7.00;87.50;99907.13;4976350;28;20564;-80
2024/01/06 09:56:52;;;;;;;21.60;17.20;;;;;;;6.99;87.71;99907.16;4991158;28;20231;-80
2024/01/06 09:59:20;;;;;;;22.30;16.83;;;;;;;7.00;87.25;99914.03;4996943;28;20211;-81
2024/01/06 10:01:46;;;;;;;25.90;17.27;;;;;;;7.00;87.54;99908.84;4996766;28;20224;-80
2024/01/06 10:04:14;;;;;;;20.90;17.57;;;;;;;6.94;87.42;99918.44;4996779;28;20238;-81
2024/01/06 10:06:41;;;;;;;20.87;16.80;;;;;;;6.97;87.26;99920.13;4994418;28;20203;-81
2024/01/06 10:09:08;;;;;;;22.63;17.30;;;;;;;6.97;87.88;99922.72;4997042;28;20258;-80
2024/01/06 10:11:36;;;;;;;21.70;17.90;;;;;;;6.99;88.27;99930.50;4988599;28;20339;-81
2024/01/06 10:14:04;;;;;;;22.37;18.13;;;;;;;6.97;88.15;99920.97;4995414;28;20213;-80
2024/01/06 10:16:30;;;;;;;29.20;19.83;;;;;;;6.96;87.92;99918.44;4993915;28;20286;-78
2024/01/06 10:18:57;;;;;;;21.27;17.23;;;;;;;6.98;87.92;99916.69;4993305;28;20203;-80
2024/01/06 10:21:26;;;;;;;26.80;19.80;;;;;;;6.95;88.25;99917.56;4996866;28;20208;-80
2024/01/06 10:23:55;;;;;;;27.20;18.20;;;;;;;7.00;88.24;99908.84;4995662;28;20212;-81
2024/01/06 10:26:22;;;;;;;24.47;18.80;;;;;;;7.01;88.48;99915.78;4995944;28;20632;-80
2024/01/06 10:28:49;;;;;;;27.77;18.57;;;;;;;7.01;88.14;99915.78;4997122;28;20213;-81
2024/01/06 10:31:15;;;;;;;25.50;19.50;;;;;;;7.00;88.67;99921.81;4995450;28;20211;-80
2024/01/06 10:33:42;;;;;;;22.83;17.63;;;;;;;6.97;87.96;99920.13;4996480;28;20207;-80
2024/01/06 10:36:09;;;;;;;32.77;20.53;;;;;;;6.96;88.04;99928.81;4994870;28;20257;-80
2024/01/06 10:38:37;;;;;;;26.70;19.23;;;;;;;6.97;88.66;99926.16;4994477;28;20203;-79
2024/01/06 10:41:07;;;;;;;28.80;19.40;;;;;;;6.96;88.18;99929.66;4995144;28;20210;-80
2024/01/06 10:43:36;;;;;;;47.97;23.63;;;;;;;6.97;88.67;99925.31;4995754;28;20277;-79
2024/01/06 10:46:04;;;;;;;26.30;17.93;;;;;;;6.95;88.59;99927.09;4995028;28;20207;-79
2024/01/06 10:48:33;;;;;;;27.87;19.10;;;;;;;6.93;87.27;99944.41;4992075;28;20556;-79
2024/01/06 10:51:00;;;;;;;27.80;19.37;;;;;;;6.89;87.86;99955.69;4994717;28;20845;-78
2024/01/06 10:53:27;;;;;;;25.20;18.87;;;;;;;6.86;88.20;99958.34;4992668;28;20240;-77
2024/01/06 10:55:56;;;;;;;26.60;19.23;;;;;;;6.86;87.99;99953.16;4991772;28;20227;-76
2024/01/06 10:58:23;;;;;;;23.13;17.83;;;;;;;6.86;88.14;99948.81;4992162;28;20213;-78
2024/01/06 11:00:50;;;;;;;20.17;16.83;;;;;;;6.88;88.40;99943.63;4992082;28;20212;-77
2024/01/06 11:03:18;;;;;;;25.37;19.50;;;;;;;6.87;88.12;99949.66;4988881;28;20229;-77
2024/01/06 11:05:45;;;;;;;25.20;17.53;;;;;;;6.86;87.79;99956.59;4991351;28;20701;-77
2024/01/06 11:08:12;;;;;;;23.10;16.40;;;;;;;6.86;88.26;99950.56;4991995;28;20265;-78
2024/01/06 11:10:40;;;;;;;21.10;17.07;;;;;;;6.81;88.04;99950.59;4991307;28;20202;-76
2024/01/06 11:13:12;;;;;;;21.33;17.00;;;;;;;6.80;89.05;99940.22;4989449;28;20254;-77
2024/01/06 11:15:45;;;;;;;20.83;16.93;;;;;;;6.82;88.00;99946.25;4992442;28;20206;-77
2024/01/06 11:18:33;;;;;;;23.53;17.03;;;;;;;6.80;88.29;99946.31;4992409;28;20205;-77
2024/01/06 11:21:18;;;;;;;22.60;18.65;;;;;;;6.83;89.20;99938.47;4995738;28;20468;-78
2024/01/06 11:23:45;;;;;;;20.87;16.77;;;;;;;6.87;88.38;99934.94;4996306;28;20205;-77
2024/01/06 11:26:11;;;;;;;24.30;16.87;;;;;;;6.88;88.46;99935.84;4995278;28;20309;-77
2024/01/06 11:28:46;;;;;;;18.93;16.40;;;;;;;6.92;88.29;99934.91;4995109;28;20217;-78
2024/01/06 11:31:12;;;;;;;21.53;17.27;;;;;;;6.89;88.46;99934.94;4993143;28;20228;-77